Fingerville, South Carolina
Current Conditions -  °F | °C
As of 12:55 PM on Saturday 22 Nov 2014 (Local Time) from KSPA Reporting Station
Clear Clear  
Wind Chill: 54°   Ceiling: Unl
Heat Index: 54°   Visibility: 10mi
Dew Point: 12°   Wind: 0mph
Humidity: 19%   Direction: NA
Pressure: 30.43"   Gusts: NA
Location:  35.13°N, 82.01°W
Report Text: KSPA 221755Z AUTO 00000KT 10SM CLR 12/M11 A3043 RMK AO2
Loading
Personal Weather Stations






























Interactive Weather Map New forecast layout! Learn more

10-Day Weather Forecast

Advertisements
Track Severe Weather on mobile